createdAt,value
2023-05-24T00:00:07.673Z,11.50
2023-05-24T00:02:34.406Z,11.50
2023-05-24T00:05:01.525Z,11.50
2023-05-24T00:07:28.300Z,11.50
2023-05-24T00:09:54.953Z,11.50
2023-05-24T00:12:21.614Z,11.40
2023-05-24T00:14:48.272Z,11.40
2023-05-24T00:17:14.911Z,11.40
2023-05-24T00:19:41.538Z,11.40
2023-05-24T00:22:08.188Z,11.30
2023-05-24T00:24:34.806Z,11.30
2023-05-24T00:27:01.464Z,11.30
2023-05-24T00:29:29.179Z,11.30
2023-05-24T00:31:57.536Z,11.30
2023-05-24T00:34:24.257Z,11.20
2023-05-24T00:36:50.904Z,11.20
2023-05-24T00:39:17.600Z,11.20
2023-05-24T00:41:44.236Z,11.20
2023-05-24T00:44:10.940Z,11.10
2023-05-24T00:46:37.875Z,11.10
2023-05-24T00:49:04.713Z,11.00
2023-05-24T00:51:31.639Z,11.00
2023-05-24T00:53:58.278Z,11.00
2023-05-24T00:56:24.909Z,11.00
2023-05-24T00:58:51.801Z,10.90
2023-05-24T01:03:49.433Z,10.90
2023-05-24T01:06:16.192Z,10.90
2023-05-24T01:08:45.607Z,10.80
2023-05-24T01:11:35.875Z,10.80
2023-05-24T01:14:35.126Z,10.80
2023-05-24T01:17:10.060Z,10.80
2023-05-24T01:19:40.389Z,10.80
2023-05-24T01:22:25.160Z,10.80
2023-05-24T01:25:12.470Z,10.80
2023-05-24T01:27:39.122Z,10.60
2023-05-24T01:30:06.404Z,10.60
2023-05-24T01:32:33.073Z,10.50
2023-05-24T01:34:59.732Z,10.50
2023-05-24T01:37:26.378Z,10.40
2023-05-24T01:39:53.031Z,10.30
2023-05-24T01:42:41.632Z,10.30
2023-05-24T01:45:11.271Z,10.20
2023-05-24T01:48:02.712Z,10.20
2023-05-24T01:50:32.526Z,10.10
2023-05-24T01:53:00.376Z,10.10
2023-05-24T01:55:27.529Z,10.10
2023-05-24T01:57:54.207Z,10.10
2023-05-24T02:00:20.902Z,10.00
2023-05-24T02:02:47.652Z,10.00
2023-05-24T02:05:14.438Z,10.00
2023-05-24T02:07:41.068Z,10.00
2023-05-24T02:10:08.236Z,9.90
2023-05-24T02:12:34.871Z,10.00
2023-05-24T02:15:01.540Z,9.90
2023-05-24T02:17:28.233Z,9.90
2023-05-24T02:19:54.970Z,9.90
2023-05-24T02:22:21.637Z,9.90
2023-05-24T02:24:48.635Z,9.80
2023-05-24T02:27:15.310Z,9.70
2023-05-24T02:29:41.971Z,9.70
2023-05-24T02:32:08.684Z,9.70
2023-05-24T02:34:35.324Z,9.70
2023-05-24T02:37:02.091Z,9.60
2023-05-24T02:39:28.898Z,9.60
2023-05-24T02:41:55.552Z,9.60
2023-05-24T02:44:22.228Z,9.60
2023-05-24T02:46:48.958Z,9.60
2023-05-24T02:49:15.622Z,9.60
2023-05-24T02:51:42.283Z,9.60
2023-05-24T02:54:08.939Z,9.50
2023-05-24T02:56:35.606Z,9.50
2023-05-24T02:59:02.281Z,9.40
2023-05-24T03:01:28.999Z,9.50
2023-05-24T03:03:55.845Z,9.40
2023-05-24T03:06:22.487Z,9.40
2023-05-24T03:08:49.139Z,9.40
2023-05-24T03:11:15.791Z,9.40
2023-05-24T03:13:42.486Z,9.40
2023-05-24T03:16:09.215Z,9.30
2023-05-24T03:18:35.910Z,9.30
2023-05-24T03:21:02.606Z,9.20
2023-05-24T03:23:29.356Z,9.20
2023-05-24T03:25:56.082Z,9.20
2023-05-24T03:28:22.725Z,9.20
2023-05-24T03:30:49.351Z,9.10
2023-05-24T03:33:16.044Z,9.10
2023-05-24T03:35:42.729Z,9.10
2023-05-24T03:38:09.346Z,9.10
2023-05-24T03:40:35.990Z,9.00
2023-05-24T03:43:04.507Z,9.00
2023-05-24T03:45:39.293Z,9.00
2023-05-24T03:48:06.944Z,9.00
2023-05-24T03:50:33.724Z,9.00
2023-05-24T03:53:00.373Z,9.00
2023-05-24T03:55:27.026Z,9.00
2023-05-24T03:57:53.826Z,8.90
2023-05-24T04:00:20.522Z,9.00
2023-05-24T04:02:47.351Z,8.90
2023-05-24T04:05:14.413Z,9.00
2023-05-24T04:07:41.153Z,8.90
2023-05-24T04:10:08.250Z,9.00
2023-05-24T04:12:34.986Z,9.00
2023-05-24T04:15:01.698Z,9.00
2023-05-24T04:17:28.527Z,9.00
2023-05-24T04:19:55.416Z,9.00
2023-05-24T04:22:24.309Z,9.00
2023-05-24T04:24:52.178Z,9.10
2023-05-24T04:27:18.843Z,9.10
2023-05-24T04:29:45.502Z,9.10
2023-05-24T04:32:12.192Z,9.10
2023-05-24T04:34:38.865Z,9.10
2023-05-24T04:37:05.495Z,9.10
2023-05-24T04:39:32.119Z,9.10
2023-05-24T04:41:58.746Z,9.10
2023-05-24T04:44:25.397Z,9.10
2023-05-24T04:46:52.057Z,9.10
2023-05-24T04:49:18.722Z,9.10
2023-05-24T04:51:46.337Z,9.20
2023-05-24T04:54:13.006Z,9.20
2023-05-24T04:56:39.679Z,9.30
2023-05-24T04:59:07.013Z,9.40
2023-05-24T05:01:33.794Z,9.50
2023-05-24T05:04:00.679Z,9.60
2023-05-24T05:06:27.447Z,9.70
2023-05-24T05:08:54.082Z,9.80
2023-05-24T05:11:20.729Z,9.80
2023-05-24T05:13:47.412Z,9.90
2023-05-24T05:16:14.623Z,9.90
2023-05-24T05:18:41.311Z,10.00
2023-05-24T05:21:07.984Z,10.10
2023-05-24T05:23:34.750Z,10.10
2023-05-24T05:26:01.413Z,10.20
2023-05-24T05:28:28.068Z,10.30
2023-05-24T05:30:54.974Z,10.30
2023-05-24T05:33:21.718Z,10.30
2023-05-24T05:35:48.549Z,10.40
2023-05-24T05:38:15.241Z,10.50
2023-05-24T05:40:42.147Z,10.50
2023-05-24T05:43:09.038Z,10.60
2023-05-24T05:45:35.704Z,10.60
2023-05-24T05:48:02.482Z,10.70
2023-05-24T05:50:29.200Z,10.80
2023-05-24T05:52:55.830Z,10.80
2023-05-24T05:55:22.666Z,10.90
2023-05-24T05:57:49.381Z,10.90
2023-05-24T06:00:16.421Z,11.00
2023-05-24T06:02:43.126Z,11.00
2023-05-24T06:05:09.879Z,11.10
2023-05-24T06:07:36.576Z,11.10
2023-05-24T06:10:03.613Z,11.20
2023-05-24T06:12:30.265Z,11.30
2023-05-24T06:14:56.931Z,11.30
2023-05-24T06:17:24.770Z,11.40
2023-05-24T06:19:51.820Z,11.50
2023-05-24T06:22:18.577Z,11.60
2023-05-24T06:24:45.523Z,11.80
2023-05-24T06:27:12.185Z,11.90
2023-05-24T06:29:38.935Z,12.00
2023-05-24T06:32:05.987Z,12.10
2023-05-24T06:34:32.625Z,12.30
2023-05-24T06:36:59.264Z,12.40
2023-05-24T06:39:25.924Z,12.50
2023-05-24T06:41:52.575Z,12.70
2023-05-24T06:44:19.249Z,12.80
2023-05-24T06:46:45.971Z,12.90
2023-05-24T06:49:12.923Z,13.00
2023-05-24T06:51:39.694Z,13.00
2023-05-24T06:54:09.399Z,13.10
2023-05-24T06:56:36.032Z,13.20
2023-05-24T06:59:02.663Z,13.20
2023-05-24T07:01:29.576Z,13.30
2023-05-24T07:03:56.356Z,13.40
2023-05-24T07:06:23.028Z,13.50
2023-05-24T07:08:49.664Z,13.60
2023-05-24T07:11:16.369Z,13.70
2023-05-24T07:13:43.028Z,14.00
2023-05-24T07:16:09.684Z,14.10
2023-05-24T07:18:36.343Z,14.20
2023-05-24T07:21:03.030Z,14.30
2023-05-24T07:23:29.676Z,14.40
2023-05-24T07:25:56.336Z,14.50
2023-05-24T07:28:23.016Z,14.60
2023-05-24T07:30:49.885Z,14.70
2023-05-24T07:33:16.886Z,14.90
2023-05-24T07:35:43.670Z,15.00
2023-05-24T07:38:10.318Z,15.20
2023-05-24T07:40:36.958Z,15.40
2023-05-24T07:43:04.360Z,15.80
2023-05-24T07:45:31.153Z,16.20
2023-05-24T07:47:57.866Z,16.60
2023-05-24T07:50:24.574Z,16.90
2023-05-24T07:52:51.231Z,17.10
2023-05-24T07:55:17.950Z,17.50
2023-05-24T07:57:44.575Z,18.00
2023-05-24T08:00:11.695Z,18.50
2023-05-24T08:02:38.673Z,18.90
2023-05-24T08:05:05.825Z,19.00
2023-05-24T08:07:32.497Z,18.90
2023-05-24T08:09:59.153Z,18.80
2023-05-24T08:12:25.830Z,18.70
2023-05-24T08:14:52.522Z,18.70
2023-05-24T08:17:19.185Z,18.90
2023-05-24T08:19:45.837Z,18.90
2023-05-24T08:22:12.486Z,18.90
2023-05-24T08:24:39.118Z,18.80
2023-05-24T08:27:05.742Z,18.90
2023-05-24T08:29:32.365Z,19.00
2023-05-24T08:31:59.476Z,19.00
2023-05-24T08:34:26.132Z,19.20
2023-05-24T08:36:52.790Z,19.50
2023-05-24T08:39:19.480Z,19.80
2023-05-24T08:41:57.421Z,20.00
2023-05-24T08:44:38.327Z,20.30
2023-05-24T08:47:05.207Z,20.70
2023-05-24T08:49:33.770Z,20.60
2023-05-24T08:52:00.659Z,20.40
2023-05-24T08:54:27.294Z,20.30
2023-05-24T08:56:53.964Z,20.50
2023-05-24T08:59:20.610Z,20.70
2023-05-24T09:01:47.492Z,20.70
2023-05-24T09:04:14.217Z,20.70
2023-05-24T09:06:40.899Z,20.80
2023-05-24T09:09:07.585Z,20.90
2023-05-24T09:11:34.216Z,21.40
2023-05-24T09:14:01.284Z,21.80
2023-05-24T09:16:28.281Z,21.70
2023-05-24T09:18:55.025Z,21.50
2023-05-24T09:21:21.678Z,21.20
2023-05-24T09:23:48.369Z,20.80
2023-05-24T09:26:15.076Z,20.60
2023-05-24T09:28:41.805Z,20.50
2023-05-24T09:31:08.798Z,20.50
2023-05-24T09:33:35.719Z,20.40
2023-05-24T09:36:05.742Z,20.50
2023-05-24T09:38:32.550Z,20.70
2023-05-24T09:41:01.182Z,20.80
2023-05-24T09:43:28.081Z,20.70
2023-05-24T09:45:54.725Z,20.70
2023-05-24T09:48:21.465Z,20.80
2023-05-24T09:51:04.288Z,21.10
2023-05-24T09:53:34.506Z,21.40
2023-05-24T09:56:03.080Z,21.80
2023-05-24T09:58:30.955Z,22.40
2023-05-24T10:01:06.897Z,23.00
2023-05-24T10:03:34.810Z,23.50
2023-05-24T10:06:01.601Z,23.80
2023-05-24T10:08:28.274Z,23.90
2023-05-24T10:10:55.586Z,23.70
2023-05-24T10:13:22.976Z,23.70
2023-05-24T10:15:49.730Z,23.90
2023-05-24T10:18:16.499Z,24.30
2023-05-24T10:20:43.610Z,24.60
2023-05-24T10:23:11.114Z,24.80
2023-05-24T10:25:41.560Z,25.00
2023-05-24T10:28:11.713Z,25.10
2023-05-24T10:30:52.811Z,25.30
2023-05-24T10:33:19.509Z,25.70
2023-05-24T10:36:03.477Z,26.00
2023-05-24T10:38:30.146Z,26.30
2023-05-24T10:40:57.373Z,26.50
2023-05-24T10:43:24.106Z,26.50
2023-05-24T10:45:50.974Z,26.60
2023-05-24T10:48:23.549Z,26.70
2023-05-24T10:50:50.358Z,26.70
2023-05-24T10:53:18.207Z,26.40
2023-05-24T10:56:01.385Z,25.90
2023-05-24T10:58:34.240Z,25.50
2023-05-24T11:01:00.992Z,24.90
2023-05-24T11:03:32.937Z,24.70
2023-05-24T11:05:59.693Z,24.80
2023-05-24T11:08:34.599Z,24.90
2023-05-24T11:11:22.506Z,24.80
2023-05-24T11:13:55.829Z,24.90
2023-05-24T11:16:38.793Z,25.20
2023-05-24T11:19:22.278Z,25.50
2023-05-24T11:21:50.435Z,25.90
2023-05-24T11:24:17.911Z,26.10
2023-05-24T11:26:45.042Z,26.10
2023-05-24T11:29:15.204Z,26.10
2023-05-24T11:31:47.598Z,26.30
2023-05-24T11:34:14.420Z,26.60
2023-05-24T11:36:41.096Z,26.60
2023-05-24T11:39:08.155Z,26.30
2023-05-24T11:41:38.514Z,26.10
2023-05-24T11:44:06.665Z,25.80
2023-05-24T11:46:33.424Z,25.90
2023-05-24T11:49:00.281Z,26.00
2023-05-24T11:51:30.736Z,26.00
2023-05-24T11:53:57.945Z,25.80
2023-05-24T11:56:30.946Z,25.30
2023-05-24T11:59:15.569Z,24.90
2023-05-24T12:01:42.511Z,24.50
2023-05-24T12:04:09.377Z,24.30
2023-05-24T12:06:42.737Z,24.20
2023-05-24T12:09:11.814Z,24.30
2023-05-24T12:11:39.247Z,24.30
2023-05-24T12:14:05.876Z,24.70
2023-05-24T12:16:32.595Z,25.20
2023-05-24T12:19:05.391Z,25.50
2023-05-24T12:21:40.610Z,25.60
2023-05-24T12:24:17.575Z,25.50
2023-05-24T12:26:44.624Z,25.10
2023-05-24T12:29:11.686Z,24.70
2023-05-24T12:31:43.654Z,24.30
2023-05-24T12:34:14.069Z,24.00
2023-05-24T12:36:41.056Z,23.80
2023-05-24T12:39:25.471Z,23.60
2023-05-24T12:41:53.373Z,23.50
2023-05-24T12:44:26.592Z,23.20
2023-05-24T12:46:54.101Z,23.10
2023-05-24T12:49:20.944Z,23.00
2023-05-24T12:51:49.389Z,23.00
2023-05-24T12:54:18.635Z,22.90
2023-05-24T12:56:45.535Z,22.90
2023-05-24T12:59:12.380Z,22.80
2023-05-24T13:01:39.189Z,22.80
2023-05-24T13:04:05.952Z,22.80
2023-05-24T13:06:32.647Z,22.80
2023-05-24T13:08:59.355Z,22.80
2023-05-24T13:11:25.991Z,22.80
2023-05-24T13:13:52.618Z,22.90
2023-05-24T13:16:19.343Z,23.10
2023-05-24T13:18:48.362Z,23.00
2023-05-24T13:21:15.086Z,22.90
2023-05-24T13:23:41.719Z,22.90
2023-05-24T13:26:08.502Z,22.70
2023-05-24T13:28:35.218Z,22.60
2023-05-24T13:31:02.102Z,22.40
2023-05-24T13:33:29.375Z,22.30
2023-05-24T13:35:56.105Z,22.20
2023-05-24T13:38:22.821Z,22.20
2023-05-24T13:40:49.665Z,22.00
2023-05-24T13:43:16.453Z,22.00
2023-05-24T13:45:44.065Z,22.00
2023-05-24T13:48:10.908Z,21.90
2023-05-24T13:50:37.854Z,21.90
2023-05-24T13:53:04.840Z,21.90
2023-05-24T13:55:33.069Z,21.90
2023-05-24T13:58:00.024Z,21.90
2023-05-24T14:00:26.838Z,21.70
2023-05-24T14:02:53.743Z,21.60
2023-05-24T14:07:50.335Z,21.40
2023-05-24T14:10:18.632Z,21.50
2023-05-24T14:12:56.130Z,21.40
2023-05-24T14:15:30.596Z,21.40
2023-05-24T14:17:58.013Z,21.50
2023-05-24T14:20:24.683Z,21.60
2023-05-24T14:22:51.436Z,21.70
2023-05-24T14:25:18.164Z,21.70
2023-05-24T14:27:44.806Z,21.60
2023-05-24T14:30:12.020Z,21.60
2023-05-24T14:32:40.063Z,21.60
2023-05-24T14:35:06.958Z,21.50
2023-05-24T14:37:33.680Z,21.40
2023-05-24T14:40:00.466Z,21.30
2023-05-24T14:42:27.288Z,21.40
2023-05-24T14:44:53.933Z,21.30
2023-05-24T14:47:20.652Z,21.30
2023-05-24T14:49:47.338Z,21.20
2023-05-24T14:52:13.982Z,21.20
2023-05-24T14:54:40.808Z,21.20
2023-05-24T14:57:07.485Z,21.20
2023-05-24T14:59:34.269Z,21.20
2023-05-24T15:02:01.212Z,21.20
2023-05-24T15:04:27.854Z,21.30
2023-05-24T15:06:55.000Z,21.30
2023-05-24T15:09:21.770Z,21.30
2023-05-24T15:11:48.703Z,21.40
2023-05-24T15:14:15.519Z,21.40
2023-05-24T15:16:42.280Z,21.50
2023-05-24T15:19:08.970Z,21.60
2023-05-24T15:21:35.738Z,21.70
2023-05-24T15:24:02.680Z,21.80
2023-05-24T15:26:29.432Z,21.90
2023-05-24T15:28:56.392Z,21.90
2023-05-24T15:31:23.474Z,21.90
2023-05-24T15:33:50.172Z,21.80
2023-05-24T15:36:16.823Z,21.80
2023-05-24T15:38:43.490Z,21.60
2023-05-24T15:41:10.192Z,21.50
2023-05-24T15:43:36.833Z,21.50
2023-05-24T15:46:03.489Z,21.50
2023-05-24T15:48:30.194Z,21.40
2023-05-24T15:51:47.026Z,21.40
2023-05-24T15:53:43.563Z,21.40
2023-05-24T15:56:10.280Z,21.40
2023-05-24T15:58:36.914Z,21.50
2023-05-24T16:01:03.593Z,21.60
2023-05-24T16:03:30.448Z,21.60
2023-05-24T16:05:57.211Z,21.60
2023-05-24T16:08:23.913Z,21.60
2023-05-24T16:10:50.640Z,21.60
2023-05-24T16:13:17.294Z,21.60
2023-05-24T16:15:43.955Z,21.50
2023-05-24T16:18:10.646Z,21.20
2023-05-24T16:20:37.564Z,21.00
2023-05-24T16:23:04.391Z,20.90
2023-05-24T16:25:31.055Z,20.80
2023-05-24T16:27:57.715Z,20.70
2023-05-24T16:30:24.379Z,20.70
2023-05-24T16:32:51.053Z,20.70
2023-05-24T16:35:17.761Z,20.80
2023-05-24T16:37:44.463Z,20.80
2023-05-24T16:40:11.481Z,20.70
2023-05-24T16:42:38.148Z,20.60
2023-05-24T16:45:05.769Z,20.70
2023-05-24T16:47:32.559Z,20.70
2023-05-24T16:49:59.251Z,20.70
2023-05-24T16:52:25.963Z,20.60
2023-05-24T16:54:52.703Z,20.60
2023-05-24T16:57:19.355Z,20.50
2023-05-24T16:59:46.366Z,20.50
2023-05-24T17:02:14.215Z,20.40
2023-05-24T17:04:40.871Z,20.40
2023-05-24T17:07:07.535Z,20.30
2023-05-24T17:09:34.216Z,20.30
2023-05-24T17:12:00.879Z,20.20
2023-05-24T17:14:27.557Z,20.10
2023-05-24T17:16:54.313Z,20.10
2023-05-24T17:19:21.009Z,20.00
2023-05-24T17:21:47.697Z,20.00
2023-05-24T17:24:14.396Z,20.00
2023-05-24T17:26:41.066Z,20.00
2023-05-24T17:29:07.931Z,19.80
2023-05-24T17:31:34.664Z,19.70
2023-05-24T17:34:01.397Z,19.60
2023-05-24T17:36:28.081Z,19.70
2023-05-24T17:38:54.759Z,19.80
2023-05-24T17:41:21.401Z,19.70
2023-05-24T17:43:48.138Z,19.60
2023-05-24T17:46:14.942Z,19.50
2023-05-24T17:48:41.635Z,19.50
2023-05-24T17:51:09.238Z,19.40
2023-05-24T17:53:37.042Z,19.40
2023-05-24T17:56:04.402Z,19.30
2023-05-24T17:58:31.125Z,19.30
2023-05-24T18:00:57.798Z,19.30
2023-05-24T18:03:24.463Z,19.30
2023-05-24T18:05:51.115Z,19.20
2023-05-24T18:08:17.855Z,19.10
2023-05-24T18:10:44.489Z,18.90
2023-05-24T18:13:11.153Z,18.80
2023-05-24T18:15:37.920Z,18.60
2023-05-24T18:18:04.784Z,18.50
2023-05-24T18:20:31.549Z,18.40
2023-05-24T18:22:58.289Z,18.20
2023-05-24T18:25:24.990Z,18.10
2023-05-24T18:27:53.626Z,18.00
2023-05-24T18:30:20.305Z,17.90
2023-05-24T18:33:03.425Z,17.80
2023-05-24T18:35:31.509Z,17.70
2023-05-24T18:37:58.202Z,17.60
2023-05-24T18:40:25.014Z,17.50
2023-05-24T18:42:51.717Z,17.50
2023-05-24T18:45:20.726Z,17.40
2023-05-24T18:47:47.498Z,17.40
2023-05-24T18:50:14.202Z,17.30
2023-05-24T18:52:40.868Z,17.20
2023-05-24T18:55:07.810Z,17.10
2023-05-24T18:57:34.489Z,17.00
2023-05-24T19:00:01.156Z,16.90
2023-05-24T19:02:27.963Z,16.90
2023-05-24T19:04:54.830Z,16.80
2023-05-24T19:07:21.508Z,16.70
2023-05-24T19:09:48.161Z,16.70
2023-05-24T19:12:14.817Z,16.60
2023-05-24T19:14:41.487Z,16.60
2023-05-24T19:17:08.253Z,16.50
2023-05-24T19:19:34.938Z,16.50
2023-05-24T19:22:01.735Z,16.50
2023-05-24T19:24:28.395Z,16.40
2023-05-24T19:26:55.198Z,16.40
2023-05-24T19:29:21.844Z,16.40
2023-05-24T19:31:48.549Z,16.30
2023-05-24T19:34:15.289Z,16.30
2023-05-24T19:36:41.938Z,16.30
2023-05-24T19:39:08.742Z,16.30
2023-05-24T19:41:35.427Z,16.20
2023-05-24T19:44:02.098Z,16.20
2023-05-24T19:46:28.853Z,16.20
2023-05-24T19:48:55.579Z,16.10
2023-05-24T19:51:22.263Z,16.10
2023-05-24T19:53:50.822Z,16.00
2023-05-24T19:56:17.703Z,16.00
2023-05-24T19:58:44.387Z,15.90
2023-05-24T20:01:11.285Z,15.90
2023-05-24T20:03:38.178Z,15.90
2023-05-24T20:06:04.972Z,15.80
2023-05-24T20:08:31.660Z,15.80
2023-05-24T20:10:58.308Z,15.70
2023-05-24T20:13:24.952Z,15.70
2023-05-24T20:15:53.631Z,15.70
2023-05-24T20:18:21.757Z,15.70
2023-05-24T20:20:48.493Z,15.60
2023-05-24T20:23:15.128Z,15.60
2023-05-24T20:25:41.980Z,15.60
2023-05-24T20:28:18.198Z,15.60
2023-05-24T20:30:52.607Z,15.50
2023-05-24T20:33:19.286Z,15.50
2023-05-24T20:35:46.075Z,15.50
2023-05-24T20:38:12.939Z,15.50
2023-05-24T20:40:39.623Z,15.40
2023-05-24T20:43:06.305Z,15.30
2023-05-24T20:45:33.076Z,15.30
2023-05-24T20:47:59.819Z,15.30
2023-05-24T20:50:26.540Z,15.30
2023-05-24T20:52:53.179Z,15.30
2023-05-24T20:55:19.997Z,15.30
2023-05-24T20:57:46.683Z,15.20
2023-05-24T21:00:13.506Z,15.20
2023-05-24T21:02:40.242Z,15.20
2023-05-24T21:05:07.258Z,15.20
2023-05-24T21:07:33.929Z,15.10
2023-05-24T21:10:00.606Z,15.10
2023-05-24T21:12:30.071Z,15.10
2023-05-24T21:14:56.732Z,15.00
2023-05-24T21:17:23.433Z,15.00
2023-05-24T21:19:50.125Z,14.90
2023-05-24T21:22:16.835Z,14.90
2023-05-24T21:24:43.543Z,14.80
2023-05-24T21:27:10.198Z,14.80
2023-05-24T21:29:36.850Z,14.80
2023-05-24T21:32:03.936Z,14.80
2023-05-24T21:34:30.609Z,14.80
2023-05-24T21:36:57.349Z,14.80
2023-05-24T21:39:24.000Z,14.70
2023-05-24T21:41:50.947Z,14.70
2023-05-24T21:44:17.748Z,14.60
2023-05-24T21:46:44.488Z,14.60
2023-05-24T21:49:11.186Z,14.60
2023-05-24T21:51:37.955Z,14.60
2023-05-24T21:54:04.766Z,14.50
2023-05-24T21:56:31.485Z,14.50
2023-05-24T21:58:58.121Z,14.40
2023-05-24T22:01:24.845Z,14.40
2023-05-24T22:03:51.659Z,14.40
2023-05-24T22:06:18.472Z,14.40
2023-05-24T22:08:45.131Z,14.30
2023-05-24T22:11:11.776Z,14.30
2023-05-24T22:13:38.433Z,14.30
2023-05-24T22:16:05.420Z,14.30
2023-05-24T22:18:32.099Z,14.20
2023-05-24T22:21:01.545Z,14.20
2023-05-24T22:23:28.319Z,14.10
2023-05-24T22:25:55.034Z,14.10
2023-05-24T22:28:21.700Z,14.10
2023-05-24T22:30:48.393Z,14.00
2023-05-24T22:33:15.173Z,14.00
2023-05-24T22:35:42.299Z,13.90
2023-05-24T22:38:09.269Z,13.90
2023-05-24T22:40:35.922Z,13.80
2023-05-24T22:43:02.783Z,13.80
2023-05-24T22:45:29.476Z,13.80
2023-05-24T22:47:56.179Z,13.80
2023-05-24T22:50:22.941Z,13.80
2023-05-24T22:52:49.613Z,13.70
2023-05-24T22:55:16.425Z,13.60
2023-05-24T22:57:43.080Z,13.60
2023-05-24T23:00:10.349Z,13.60
2023-05-24T23:02:37.102Z,13.60
2023-05-24T23:05:04.014Z,13.50
2023-05-24T23:07:30.884Z,13.50
2023-05-24T23:09:57.615Z,13.50
2023-05-24T23:12:24.527Z,13.50
2023-05-24T23:14:51.183Z,13.50
2023-05-24T23:17:17.968Z,13.40
2023-05-24T23:19:44.705Z,13.30
2023-05-24T23:22:12.200Z,13.40
2023-05-24T23:24:41.863Z,13.30
2023-05-24T23:27:08.694Z,13.20
2023-05-24T23:29:35.401Z,13.20
2023-05-24T23:32:02.099Z,13.10
2023-05-24T23:34:28.815Z,13.10
2023-05-24T23:36:55.474Z,13.10
2023-05-24T23:39:22.185Z,13.10
